Time;durP1;ratioP1;P1;durP2;ratioP2;P2;SDS_P1;SDS_P2;PMS_P1;PMS_P2;Temp;Humidity;BMP_temperature;BMP_pressure;BME280_temperature;BME280_humidity;BME280_pressure;Samples;Min_cycle;Max_cycle;Signal;HPM_P1;HPM_P2
2022/02/05 00:01:21;;;;;;;28.42;3.78;;;;;;;;;;5026611;28;20470;-64
2022/02/05 00:03:55;;;;;;;30.50;2.83;;;;;;;;;;5026137;28;20103;-63
2022/02/05 00:06:28;;;;;;;29.17;3.22;;;;;;;;;;5027403;28;20103;-63
2022/02/05 00:09:07;;;;;;;30.85;4.72;;;;;;;;;;5020682;28;20129;-63
2022/02/05 00:41:54;;;;;;;22.63;3.17;;;;;;;;;;5023111;28;20054;-63
2022/02/05 00:44:20;;;;;;;20.70;2.20;;;;;;;;;;5025268;28;20084;-63
2022/02/05 00:46:51;;;;;;;27.92;2.75;;;;;;;;;;5022340;28;20056;-64
2022/02/05 00:49:17;;;;;;;15.60;2.92;;;;;;;;;;5023420;28;20137;-63
2022/02/05 00:51:55;;;;;;;29.02;2.90;;;;;;;;;;5025027;28;20111;-63
2022/02/05 00:54:29;;;;;;;18.85;2.70;;;;;;;;;;5025261;28;20132;-63
2022/02/05 00:59:22;;;;;;;33.47;3.72;;;;;;;;;;5044465;28;20129;-63
2022/02/05 01:01:49;;;;;;;30.85;2.75;;;;;;;;;;5044457;28;20164;-64
2022/02/05 01:04:15;;;;;;;25.42;1.92;;;;;;;;;;5042390;28;20080;-64
2022/02/05 01:06:42;;;;;;;35.75;2.97;;;;;;;;;;5043237;28;20083;-63
2022/02/05 01:09:25;;;;;;;28.35;3.53;;;;;;;;;;5039145;28;20137;-64
2022/02/05 01:11:51;;;;;;;18.73;2.78;;;;;;;;;;5043968;28;20093;-63
2022/02/05 01:14:23;;;;;;;24.17;2.88;;;;;;;;;;5043772;28;20476;-63
2022/02/05 01:22:05;;;;;;;30.80;3.65;;;;;;;;;;5042140;28;20123;-64
2022/02/05 01:24:32;;;;;;;29.05;3.22;;;;;;;;;;5042815;28;20084;-64
2022/02/05 01:27:05;;;;;;;;;;;;;;;;;;5043729;28;20072;-64
2022/02/05 01:29:56;;;;;;;26.88;3.28;;;;;;;;;;5043000;28;19964;-64
2022/02/05 01:32:26;;;;;;;24.83;2.60;;;;;;;;;;5039646;28;20124;-64
2022/02/05 01:35:07;;;;;;;25.25;3.10;;;;;;;;;;5043285;28;20049;-64
2022/02/05 01:49:17;;;;;;;42.80;3.58;;;;;;;;;;5041383;28;20445;-64
2022/02/05 01:52:03;;;;;;;38.22;3.50;;;;;;;;;;5043943;28;20083;-64
2022/02/05 01:54:38;;;;;;;36.85;3.40;;;;;;;;;;5043491;28;20135;-64
2022/02/05 01:57:21;;;;;;;25.55;3.35;;;;;;;;;;5041603;28;20147;-64
2022/02/05 02:05:03;;;;;;;30.50;3.33;;;;;;;;;;5043924;28;20863;-64
2022/02/05 02:15:47;;;;;;;43.80;3.25;;;;;;;;;;5044942;28;20172;-64
2022/02/05 02:18:35;;;;;;;28.77;3.35;;;;;;;;;;5043455;28;20105;-64
2022/02/05 02:26:12;;;;;;;25.35;3.20;;;;;;;;;;5043904;28;20457;-64
2022/02/05 02:29:04;;;;;;;30.70;4.25;;;;;;;;;;5040818;28;20679;-64
2022/02/05 02:31:33;;;;;;;35.65;3.45;;;;;;;;;;5043926;28;20103;-64
2022/02/05 02:34:03;;;;;;;26.85;3.28;;;;;;;;;;5041892;28;20132;-64
2022/02/05 02:36:37;;;;;;;25.65;3.92;;;;;;;;;;5044151;28;20515;-64
2022/02/05 02:39:10;;;;;;;31.63;3.83;;;;;;;;;;5043920;28;20084;-64
2022/02/05 02:44:26;;;;;;;44.38;3.63;;;;;;;;;;5043346;28;20165;-63
2022/02/05 02:46:52;;;;;;;42.53;3.88;;;;;;;;;;5041314;28;20488;-64
2022/02/05 02:49:37;;;;;;;29.85;3.35;;;;;;;;;;5037495;28;20061;-64
2022/02/05 02:57:50;;;;;;;26.98;3.00;;;;;;;;;;5041413;28;20085;-64
2022/02/05 03:00:16;;;;;;;39.58;4.38;;;;;;;;;;5044213;28;20077;-64
2022/02/05 03:02:43;;;;;;;24.50;3.45;;;;;;;;;;5044078;28;20138;-64
2022/02/05 03:05:10;;;;;;;34.75;3.38;;;;;;;;;;5041960;28;20473;-64
2022/02/05 03:07:37;;;;;;;23.37;4.30;;;;;;;;;;5047420;28;20537;-64
2022/02/05 03:10:03;;;;;;;34.20;4.47;;;;;;;;;;5045442;28;20076;-64
2022/02/05 03:12:30;;;;;;;32.92;3.47;;;;;;;;;;5042823;28;20076;-64
2022/02/05 03:14:57;;;;;;;37.58;3.83;;;;;;;;;;5045022;28;20080;-64
2022/02/05 03:17:31;;;;;;;38.97;4.93;;;;;;;;;;5043349;28;20136;-64
2022/02/05 03:19:59;;;;;;;44.20;4.85;;;;;;;;;;5044887;28;20612;-64
2022/02/05 03:22:25;;;;;;;38.17;4.50;;;;;;;;;;5046213;28;20562;-64
2022/02/05 03:24:51;;;;;;;31.25;4.05;;;;;;;;;;5046308;28;20144;-64
2022/02/05 03:27:24;;;;;;;38.72;4.25;;;;;;;;;;5047359;28;20129;-64
2022/02/05 03:29:51;;;;;;;30.25;3.58;;;;;;;;;;5043792;28;20509;-64
2022/02/05 03:32:18;;;;;;;37.10;4.45;;;;;;;;;;5045462;28;20132;-64
2022/02/05 03:34:46;;;;;;;40.00;4.78;;;;;;;;;;5044341;28;20073;-64
2022/02/05 03:37:13;;;;;;;31.27;3.80;;;;;;;;;;5042652;28;20076;-64
2022/02/05 03:39:39;;;;;;;33.53;4.65;;;;;;;;;;5042864;28;20141;-64
2022/02/05 03:42:13;;;;;;;33.00;4.30;;;;;;;;;;5043077;28;20107;-64
2022/02/05 03:44:40;;;;;;;42.43;4.57;;;;;;;;;;5040708;28;20834;-64
2022/02/05 03:47:07;;;;;;;42.88;5.03;;;;;;;;;;5041160;28;20387;-65
2022/02/05 03:49:34;;;;;;;33.97;4.30;;;;;;;;;;5046936;28;20072;-65
2022/02/05 03:52:01;;;;;;;39.85;4.53;;;;;;;;;;5043228;28;20131;-65
2022/02/05 03:54:30;;;;;;;32.97;4.53;;;;;;;;;;5044148;28;20048;-65
2022/02/05 03:56:57;;;;;;;50.17;4.78;;;;;;;;;;5041388;28;20140;-65
2022/02/05 03:59:23;;;;;;;37.15;4.32;;;;;;;;;;5039858;28;20076;-65
2022/02/05 04:01:50;;;;;;;30.10;4.18;;;;;;;;;;5041141;28;20084;-65
2022/02/05 04:04:17;;;;;;;47.35;4.07;;;;;;;;;;5043429;28;20081;-65
2022/02/05 04:06:43;;;;;;;31.70;4.20;;;;;;;;;;5043966;28;20572;-65
2022/02/05 04:09:18;;;;;;;33.92;4.38;;;;;;;;;;5045096;28;20454;-64
2022/02/05 04:17:22;;;;;;;26.75;3.90;;;;;;;;;;5045608;28;20137;-65
2022/02/05 04:19:49;;;;;;;27.33;3.75;;;;;;;;;;5041160;28;20218;-65
2022/02/05 04:22:15;;;;;;;27.23;3.75;;;;;;;;;;5043946;28;20100;-65
2022/02/05 04:24:48;;;;;;;31.63;3.67;;;;;;;;;;5046881;28;20497;-65
2022/02/05 04:27:15;;;;;;;28.92;3.90;;;;;;;;;;5047515;28;20584;-65
2022/02/05 04:29:41;;;;;;;25.23;2.72;;;;;;;;;;5043357;28;20084;-65
2022/02/05 04:32:13;;;;;;;27.10;4.40;;;;;;;;;;5040437;28;20148;-65
2022/02/05 04:34:40;;;;;;;25.20;3.47;;;;;;;;;;5043639;28;20083;-65
2022/02/05 04:37:07;;;;;;;29.38;4.35;;;;;;;;;;5043399;28;20557;-65
2022/02/05 04:39:37;;;;;;;28.77;3.60;;;;;;;;;;5043142;28;20505;-65
2022/02/05 04:42:12;;;;;;;38.03;4.53;;;;;;;;;;5045124;28;20089;-65
2022/02/05 04:45:01;;;;;;;25.23;4.40;;;;;;;;;;5043191;28;20263;-65
2022/02/05 05:06:32;;;;;;;24.50;3.70;;;;;;;;;;5042304;28;20055;-65
2022/02/05 05:20:19;;;;;;;20.20;2.72;;;;;;;;;;5043778;28;20045;-64
2022/02/05 05:22:45;;;;;;;34.85;4.53;;;;;;;;;;5041544;28;20057;-65
2022/02/05 05:25:14;;;;;;;27.85;4.47;;;;;;;;;;5046104;28;20045;-63
2022/02/05 05:27:41;;;;;;;35.30;3.72;;;;;;;;;;5041795;28;20562;-65
2022/02/05 05:30:07;;;;;;;25.98;3.90;;;;;;;;;;5042682;28;20133;-64
2022/02/05 05:32:34;;;;;;;28.20;4.25;;;;;;;;;;5045762;28;20547;-64
2022/02/05 05:35:08;;;;;;;42.00;3.40;;;;;;;;;;5042069;28;20445;-64
2022/02/05 05:37:34;;;;;;;31.00;3.05;;;;;;;;;;5041476;28;20084;-65
2022/02/05 05:40:01;;;;;;;31.80;4.63;;;;;;;;;;5044761;28;20594;-64
2022/02/05 05:42:37;;;;;;;35.75;4.28;;;;;;;;;;5043782;28;20825;-64
2022/02/05 05:47:35;;;;;;;26.33;3.10;;;;;;;;;;5042093;28;20136;-64
2022/02/05 05:50:10;;;;;;;34.00;4.65;;;;;;;;;;5043270;28;20099;-64
2022/02/05 05:52:43;;;;;;;28.00;3.33;;;;;;;;;;5044056;28;20107;-64
2022/02/05 05:55:10;;;;;;;25.52;3.60;;;;;;;;;;5043927;28;20085;-64
2022/02/05 05:57:36;;;;;;;31.17;3.80;;;;;;;;;;5033752;28;20136;-64
2022/02/05 06:00:03;;;;;;;26.95;3.67;;;;;;;;;;5021112;28;20054;-64
2022/02/05 06:02:31;;;;;;;21.52;3.35;;;;;;;;;;5022719;28;20576;-64
2022/02/05 06:04:57;;;;;;;30.23;3.63;;;;;;;;;;5023470;28;20133;-65
2022/02/05 06:07:24;;;;;;;24.00;3.40;;;;;;;;;;5023496;28;20132;-64
2022/02/05 06:09:50;;;;;;;27.38;3.35;;;;;;;;;;5024249;28;20717;-64
2022/02/05 06:12:17;;;;;;;33.13;3.42;;;;;;;;;;5024467;28;20080;-64
2022/02/05 06:14:50;;;;;;;17.13;2.90;;;;;;;;;;5018318;28;20089;-64
2022/02/05 06:17:23;;;;;;;26.35;3.85;;;;;;;;;;5023026;28;20110;-65
2022/02/05 06:19:50;;;;;;;25.00;3.60;;;;;;;;;;5023730;28;20729;-64
2022/02/05 06:22:19;;;;;;;25.95;4.20;;;;;;;;;;5024897;28;20132;-64
2022/02/05 06:24:46;;;;;;;27.98;3.40;;;;;;;;;;5009514;28;20125;-64
2022/02/05 06:27:12;;;;;;;25.58;4.38;;;;;;;;;;5022215;28;20137;-64
2022/02/05 06:29:40;;;;;;;30.05;4.18;;;;;;;;;;5022800;28;20053;-64
2022/02/05 06:32:07;;;;;;;30.40;4.20;;;;;;;;;;5021900;28;20132;-66
2022/02/05 06:34:33;;;;;;;28.23;3.43;;;;;;;;;;5023071;28;20087;-65
2022/02/05 06:37:00;;;;;;;37.63;4.93;;;;;;;;;;5018458;28;20179;-65
2022/02/05 06:39:26;;;;;;;32.95;3.70;;;;;;;;;;5023339;28;20652;-64
2022/02/05 06:41:53;;;;;;;26.73;3.75;;;;;;;;;;5019870;28;20200;-64
2022/02/05 06:44:19;;;;;;;31.25;3.50;;;;;;;;;;5019432;28;20132;-64
2022/02/05 06:46:46;;;;;;;35.47;4.35;;;;;;;;;;5020488;28;20217;-64
2022/02/05 06:49:12;;;;;;;27.13;3.25;;;;;;;;;;5018586;28;20132;-65
2022/02/05 06:51:39;;;;;;;37.57;5.30;;;;;;;;;;5020589;28;20100;-65
2022/02/05 06:54:06;;;;;;;27.55;3.35;;;;;;;;;;5021874;28;20088;-64
2022/02/05 06:56:32;;;;;;;38.83;4.47;;;;;;;;;;5018587;28;20085;-65
2022/02/05 06:59:01;;;;;;;27.67;3.65;;;;;;;;;;5026045;28;20080;-65
2022/02/05 07:01:27;;;;;;;16.47;2.93;;;;;;;;;;5029041;28;20124;-65
2022/02/05 07:03:53;;;;;;;26.30;3.80;;;;;;;;;;5027726;28;20077;-64
2022/02/05 07:06:20;;;;;;;29.40;3.75;;;;;;;;;;5027768;28;20495;-64
2022/02/05 07:08:47;;;;;;;29.17;3.65;;;;;;;;;;5028821;28;20089;-65
2022/02/05 07:11:13;;;;;;;22.55;3.42;;;;;;;;;;5022640;28;20144;-65
2022/02/05 07:13:40;;;;;;;14.57;3.08;;;;;;;;;;5025463;28;20128;-65
2022/02/05 07:16:16;;;;;;;39.40;4.18;;;;;;;;;;5027103;28;20132;-65
2022/02/05 07:21:38;;;;;;;24.83;4.40;;;;;;;;;;4997699;28;20095;-65
2022/02/05 07:24:25;;;;;;;35.25;4.43;;;;;;;;;;5026187;28;20128;-64
2022/02/05 07:29:37;;;;;;;32.95;4.28;;;;;;;;;;5020541;28;20095;-65
2022/02/05 07:32:04;;;;;;;20.92;4.22;;;;;;;;;;5025355;28;20140;-65
2022/02/05 07:34:31;;;;;;;20.20;3.87;;;;;;;;;;5022088;28;20088;-65
2022/02/05 07:37:02;;;;;;;23.45;3.90;;;;;;;;;;5022877;28;20081;-64
2022/02/05 07:39:30;;;;;;;31.23;4.18;;;;;;;;;;5026631;28;20137;-65
2022/02/05 07:41:59;;;;;;;17.08;4.40;;;;;;;;;;5026286;28;20485;-64
2022/02/05 07:44:26;;;;;;;17.23;3.75;;;;;;;;;;5027449;28;20470;-64
2022/02/05 07:46:53;;;;;;;22.73;3.80;;;;;;;;;;5026253;28;20058;-64
2022/02/05 07:49:22;;;;;;;32.15;5.05;;;;;;;;;;5026161;28;20072;-65
2022/02/05 07:51:55;;;;;;;32.70;4.15;;;;;;;;;;5030964;28;20669;-65
2022/02/05 07:54:22;;;;;;;27.02;4.07;;;;;;;;;;5031149;28;20280;-65
2022/02/05 07:56:49;;;;;;;26.85;4.07;;;;;;;;;;5029427;28;20081;-65
2022/02/05 07:59:29;;;;;;;40.63;5.78;;;;;;;;;;5022780;28;20128;-65
2022/02/05 08:01:55;;;;;;;30.33;4.40;;;;;;;;;;5022603;28;20080;-65
2022/02/05 08:04:22;;;;;;;20.58;4.00;;;;;;;;;;5022461;28;20088;-65
2022/02/05 08:06:57;;;;;;;32.78;4.43;;;;;;;;;;5020957;28;20556;-65
2022/02/05 08:09:41;;;;;;;25.92;4.35;;;;;;;;;;5023251;28;20109;-65
2022/02/05 08:12:17;;;;;;;41.85;5.00;;;;;;;;;;5024931;28;20069;-65
2022/02/05 08:14:47;;;;;;;15.90;3.13;;;;;;;;;;5023455;28;20099;-65
2022/02/05 08:17:23;;;;;;;23.80;4.45;;;;;;;;;;5010444;28;20136;-65
2022/02/05 08:19:56;;;;;;;28.65;5.00;;;;;;;;;;5024797;28;20469;-66
2022/02/05 08:22:25;;;;;;;33.85;4.90;;;;;;;;;;5024021;28;20172;-66
2022/02/05 08:24:52;;;;;;;27.45;3.67;;;;;;;;;;5020050;28;20535;-66
2022/02/05 08:27:26;;;;;;;35.08;5.70;;;;;;;;;;5026019;28;22017;-66
2022/02/05 08:29:58;;;;;;;31.42;3.88;;;;;;;;;;5010887;28;20723;-66
2022/02/05 08:32:27;;;;;;;35.10;5.35;;;;;;;;;;5012440;28;20136;-66
2022/02/05 08:34:54;;;;;;;35.60;4.80;;;;;;;;;;5016434;28;20145;-66
2022/02/05 08:37:21;;;;;;;27.00;4.57;;;;;;;;;;5023436;28;20077;-66
2022/02/05 08:39:47;;;;;;;26.05;4.55;;;;;;;;;;5022832;28;20132;-67
2022/02/05 08:42:14;;;;;;;32.50;4.60;;;;;;;;;;5021036;28;20132;-66
2022/02/05 08:44:40;;;;;;;34.72;4.65;;;;;;;;;;5019274;28;20128;-67
2022/02/05 08:47:07;;;;;;;38.88;6.00;;;;;;;;;;5022198;28;20136;-67
2022/02/05 08:49:35;;;;;;;26.58;4.22;;;;;;;;;;5022837;28;22384;-67
2022/02/05 08:52:06;;;;;;;31.17;3.95;;;;;;;;;;5020137;28;20165;-67
2022/02/05 08:54:33;;;;;;;29.65;5.53;;;;;;;;;;5019967;28;20088;-67
2022/02/05 08:57:07;;;;;;;30.92;4.05;;;;;;;;;;5025642;28;20136;-67
2022/02/05 08:59:47;;;;;;;;;;;;;;;;;;5022163;28;20584;-67
2022/02/05 09:02:46;;;;;;;26.92;4.13;;;;;;;;;;5021343;28;19926;-67
2022/02/05 09:05:14;;;;;;;29.15;4.65;;;;;;;;;;5019021;28;20165;-67
2022/02/05 09:07:42;;;;;;;32.95;4.70;;;;;;;;;;5020411;28;20560;-67
2022/02/05 09:10:29;;;;;;;28.38;4.68;;;;;;;;;;5018346;28;20132;-66
2022/02/05 09:13:24;;;;;;;33.67;5.00;;;;;;;;;;5020786;28;20138;-67
2022/02/05 09:15:57;;;;;;;43.45;4.85;;;;;;;;;;5018788;28;20124;-68
2022/02/05 09:18:27;;;;;;;34.17;5.22;;;;;;;;;;5020115;28;20137;-67
2022/02/05 09:20:54;;;;;;;36.95;5.30;;;;;;;;;;5023132;28;20129;-67
2022/02/05 09:23:21;;;;;;;38.90;5.97;;;;;;;;;;5019039;28;20773;-67
2022/02/05 09:25:48;;;;;;;51.50;6.40;;;;;;;;;;5005181;28;20089;-66
2022/02/05 09:28:15;;;;;;;41.03;6.43;;;;;;;;;;5020006;28;20432;-67
2022/02/05 09:30:48;;;;;;;48.90;5.85;;;;;;;;;;5022768;28;20140;-67
2022/02/05 09:33:15;;;;;;;43.08;6.75;;;;;;;;;;5019639;28;20071;-67
2022/02/05 09:35:42;;;;;;;37.07;4.80;;;;;;;;;;5018882;28;20065;-67
2022/02/05 09:38:08;;;;;;;48.80;6.90;;;;;;;;;;5019195;28;20136;-67
2022/02/05 09:40:35;;;;;;;43.05;6.53;;;;;;;;;;5020687;28;20156;-67
2022/02/05 09:43:01;;;;;;;62.47;7.43;;;;;;;;;;5006202;28;20084;-67
2022/02/05 09:45:28;;;;;;;28.38;4.32;;;;;;;;;;5019177;28;20141;-67
2022/02/05 09:47:55;;;;;;;44.55;6.70;;;;;;;;;;5023628;28;20044;-67
2022/02/05 09:50:22;;;;;;;29.33;5.23;;;;;;;;;;5021502;28;20081;-66
2022/02/05 09:52:52;;;;;;;40.47;6.03;;;;;;;;;;5023411;28;20722;-66
2022/02/05 09:55:19;;;;;;;46.60;8.55;;;;;;;;;;5023877;28;20081;-67
2022/02/05 09:57:45;;;;;;;46.65;6.05;;;;;;;;;;5020044;28;20124;-67
2022/02/05 10:00:15;;;;;;;37.20;6.10;;;;;;;;;;5019001;28;20647;-66
2022/02/05 10:02:42;;;;;;;22.23;3.97;;;;;;;;;;5019150;28;20358;-66
2022/02/05 10:05:15;;;;;;;31.35;5.13;;;;;;;;;;5020959;28;20049;-66
2022/02/05 10:07:57;;;;;;;35.83;5.30;;;;;;;;;;5019288;28;20153;-67
2022/02/05 10:10:24;;;;;;;43.15;6.47;;;;;;;;;;5016001;28;20060;-67
2022/02/05 10:13:10;;;;;;;30.27;5.22;;;;;;;;;;5024185;28;20081;-66
2022/02/05 10:15:37;;;;;;;28.63;5.60;;;;;;;;;;5022904;28;20053;-66
2022/02/05 10:18:04;;;;;;;;;;;;;;;;;;5022747;28;20092;-66
2022/02/05 10:20:32;;;;;;;30.77;4.18;;;;;;;;;;5018128;28;20463;-66
2022/02/05 10:23:09;;;;;;;27.02;4.38;;;;;;;;;;5020620;28;20549;-66
2022/02/05 10:25:37;;;;;;;24.05;3.20;;;;;;;;;;5019863;28;20132;-66
2022/02/05 10:28:10;;;;;;;24.35;4.05;;;;;;;;;;5020508;28;20084;-66
2022/02/05 10:30:41;;;;;;;24.73;3.70;;;;;;;;;;5019357;28;20517;-66
2022/02/05 10:33:16;;;;;;;24.25;4.22;;;;;;;;;;5021818;28;20132;-66
2022/02/05 10:35:49;;;;;;;18.80;4.13;;;;;;;;;;5018296;28;20246;-66
2022/02/05 10:41:00;;;;;;;15.18;3.40;;;;;;;;;;5018372;28;20045;-66
2022/02/05 10:43:33;;;;;;;22.60;2.85;;;;;;;;;;5014958;28;20129;-66
2022/02/05 10:46:01;;;;;;;18.60;2.85;;;;;;;;;;5015731;28;20052;-66
2022/02/05 10:48:28;;;;;;;;;;;;;;;;;;5018236;28;20050;-66
2022/02/05 10:50:56;;;;;;;17.33;2.92;;;;;;;;;;5016626;28;19921;-66
2022/02/05 10:53:39;;;;;;;11.45;2.30;;;;;;;;;;5019657;28;20565;-66
2022/02/05 11:07:05;;;;;;;13.52;2.97;;;;;;;;;;5024476;28;20097;-66
2022/02/05 11:09:33;;;;;;;21.55;3.05;;;;;;;;;;5024555;28;20085;-66
2022/02/05 11:20:03;;;;;;;19.08;3.13;;;;;;;;;;5014965;28;20073;-66
2022/02/05 11:22:36;;;;;;;20.73;2.97;;;;;;;;;;5023763;28;20045;-66
2022/02/05 11:25:04;;;;;;;14.55;2.42;;;;;;;;;;5023207;28;20638;-65
2022/02/05 11:27:30;;;;;;;;;;;;;;;;;;5027408;28;20659;-66
2022/02/05 11:30:17;;;;;;;14.68;2.40;;;;;;;;;;5025703;28;19964;-65
2022/02/05 11:32:50;;;;;;;23.25;2.95;;;;;;;;;;5024354;28;20148;-66
2022/02/05 11:35:29;;;;;;;23.98;3.17;;;;;;;;;;5021365;28;20077;-65
2022/02/05 11:37:57;;;;;;;19.83;3.33;;;;;;;;;;5020325;28;20107;-65
2022/02/05 11:40:42;;;;;;;20.90;3.70;;;;;;;;;;5026570;28;20041;-65
2022/02/05 11:43:38;;;;;;;17.77;2.55;;;;;;;;;;5023257;28;20045;-65
2022/02/05 11:46:07;;;;;;;26.52;4.70;;;;;;;;;;5011898;28;20108;-65
2022/02/05 11:48:54;;;;;;;21.98;3.95;;;;;;;;;;5021685;28;20263;-65
2022/02/05 11:51:22;;;;;;;21.75;3.65;;;;;;;;;;5027440;28;20085;-65
2022/02/05 11:53:58;;;;;;;21.85;4.25;;;;;;;;;;5022831;28;20184;-65
2022/02/05 11:56:34;;;;;;;23.25;4.28;;;;;;;;;;5023330;28;20095;-65
2022/02/05 11:59:01;;;;;;;21.55;3.30;;;;;;;;;;5040240;28;20425;-65
2022/02/05 12:01:38;;;;;;;29.75;3.80;;;;;;;;;;5031393;28;20132;-65
2022/02/05 12:04:16;;;;;;;22.63;2.95;;;;;;;;;;5046001;28;20191;-65
2022/02/05 12:06:53;;;;;;;19.85;3.40;;;;;;;;;;5041700;28;20144;-65
2022/02/05 12:09:41;;;;;;;37.03;4.38;;;;;;;;;;5041439;28;20038;-65
2022/02/05 12:12:23;;;;;;;30.77;4.50;;;;;;;;;;5040093;28;20088;-65
2022/02/05 12:15:08;;;;;;;26.42;4.40;;;;;;;;;;5040423;28;20348;-65
2022/02/05 12:17:55;;;;;;;28.77;3.97;;;;;;;;;;5046809;28;20049;-65
2022/02/05 12:20:26;;;;;;;30.10;4.63;;;;;;;;;;5045454;28;20088;-65
2022/02/05 12:22:56;;;;;;;26.23;4.45;;;;;;;;;;5041412;28;20073;-65
2022/02/05 12:25:24;;;;;;;29.13;4.28;;;;;;;;;;5042810;28;20143;-65
2022/02/05 12:27:52;;;;;;;29.90;4.57;;;;;;;;;;5042681;28;20085;-65
2022/02/05 12:30:36;;;;;;;22.17;3.13;;;;;;;;;;5039467;28;20128;-65
2022/02/05 12:33:06;;;;;;;26.17;3.70;;;;;;;;;;5040921;28;20071;-65
2022/02/05 12:35:33;;;;;;;26.02;3.63;;;;;;;;;;5044938;28;20137;-65
2022/02/05 12:38:00;;;;;;;;;;;;;;;;;;5045942;28;20130;-64
2022/02/05 12:40:27;;;;;;;39.45;4.45;;;;;;;;;;5037939;28;19956;-65
2022/02/05 12:42:53;;;;;;;26.80;3.33;;;;;;;;;;5043077;28;20128;-65
2022/02/05 12:45:34;;;;;;;22.95;3.20;;;;;;;;;;5039560;28;20053;-64
2022/02/05 12:48:05;;;;;;;26.15;4.45;;;;;;;;;;5039458;28;20157;-66
2022/02/05 12:50:39;;;;;;;25.35;3.45;;;;;;;;;;5039558;28;20182;-65
2022/02/05 12:53:08;;;;;;;17.70;3.78;;;;;;;;;;5038907;28;20146;-65
2022/02/05 12:55:44;;;;;;;32.75;4.30;;;;;;;;;;5038039;28;21894;-65
2022/02/05 12:58:14;;;;;;;24.92;4.38;;;;;;;;;;5029451;28;21773;-65
2022/02/05 13:00:40;;;;;;;31.83;4.25;;;;;;;;;;5019419;28;20125;-65
2022/02/05 13:03:26;;;;;;;29.33;3.42;;;;;;;;;;5019151;28;20144;-65
2022/02/05 13:05:53;;;;;;;23.02;3.20;;;;;;;;;;5017444;28;20046;-65
2022/02/05 13:08:20;;;;;;;12.95;3.05;;;;;;;;;;5018562;28;20081;-65
2022/02/05 13:10:46;;;;;;;21.52;3.42;;;;;;;;;;5022848;28;20138;-64
2022/02/05 13:13:13;;;;;;;24.67;4.28;;;;;;;;;;5017767;28;20145;-64
2022/02/05 13:16:00;;;;;;;21.63;2.80;;;;;;;;;;5015303;28;20065;-65
2022/02/05 13:18:41;;;;;;;25.85;3.55;;;;;;;;;;5021489;28;20391;-65
2022/02/05 13:26:58;;;;;;;19.23;2.95;;;;;;;;;;5019923;28;20056;-64
2022/02/05 13:29:44;;;;;;;25.70;3.53;;;;;;;;;;5017738;28;20140;-65
2022/02/05 13:35:02;;;;;;;24.42;3.42;;;;;;;;;;5017857;28;20081;-65
2022/02/05 13:37:45;;;;;;;27.38;3.42;;;;;;;;;;5018850;28;20061;-66
2022/02/05 13:40:19;;;;;;;26.03;4.20;;;;;;;;;;5022023;28;20140;-65
2022/02/05 13:42:49;;;;;;;16.08;2.83;;;;;;;;;;5020133;28;20493;-65
2022/02/05 13:45:42;;;;;;;18.42;2.97;;;;;;;;;;5019194;28;20123;-65
2022/02/05 13:48:22;;;;;;;23.15;3.67;;;;;;;;;;5017418;28;20069;-65
2022/02/05 13:50:49;;;;;;;29.27;3.83;;;;;;;;;;5018542;28;20144;-64
2022/02/05 13:53:16;;;;;;;29.13;2.83;;;;;;;;;;5018525;28;20893;-65
2022/02/05 13:55:49;;;;;;;22.10;3.50;;;;;;;;;;5018271;28;20058;-64
2022/02/05 13:58:17;;;;;;;25.80;4.15;;;;;;;;;;5017384;28;20175;-65
2022/02/05 14:00:54;;;;;;;16.08;3.08;;;;;;;;;;5015282;28;21098;-64
2022/02/05 14:03:32;;;;;;;30.70;4.10;;;;;;;;;;5020343;28;20049;-64
2022/02/05 14:06:06;;;;;;;23.15;3.80;;;;;;;;;;5024166;28;20073;-64
2022/02/05 14:08:35;;;;;;;21.98;3.85;;;;;;;;;;5020006;28;21728;-64
2022/02/05 14:11:03;;;;;;;18.30;2.55;;;;;;;;;;5021791;28;20049;-64
2022/02/05 14:13:30;;;;;;;25.92;3.20;;;;;;;;;;5023076;28;20077;-64
2022/02/05 14:16:00;;;;;;;24.75;4.13;;;;;;;;;;5019462;28;20141;-64
2022/02/05 14:18:28;;;;;;;29.88;3.75;;;;;;;;;;5020460;28;20132;-64
2022/02/05 14:20:58;;;;;;;19.80;2.60;;;;;;;;;;5020694;28;20148;-64
2022/02/05 14:23:29;;;;;;;14.02;2.22;;;;;;;;;;5020421;28;20096;-65
2022/02/05 14:26:13;;;;;;;25.40;3.75;;;;;;;;;;5023385;28;20631;-64
2022/02/05 14:28:52;;;;;;;21.95;3.92;;;;;;;;;;5018266;28;20149;-64
2022/02/05 14:41:59;;;;;;;34.08;3.42;;;;;;;;;;5021630;28;20065;-64
2022/02/05 14:44:28;;;;;;;28.98;3.83;;;;;;;;;;5019418;28;20488;-64
2022/02/05 14:46:54;;;;;;;27.60;3.92;;;;;;;;;;5023777;28;20429;-64
2022/02/05 14:49:21;;;;;;;22.70;3.92;;;;;;;;;;5019301;28;20561;-64
2022/02/05 14:51:50;;;;;;;23.00;4.25;;;;;;;;;;5022862;28;20049;-64
2022/02/05 14:54:17;;;;;;;14.05;3.03;;;;;;;;;;5019706;28;20128;-65
2022/02/05 14:56:47;;;;;;;22.40;4.28;;;;;;;;;;5020701;28;20425;-64
2022/02/05 14:59:17;;;;;;;21.60;4.30;;;;;;;;;;5021570;28;20092;-64
2022/02/05 15:01:43;;;;;;;36.85;4.65;;;;;;;;;;5023072;28;20080;-65
2022/02/05 15:04:09;;;;;;;30.20;3.30;;;;;;;;;;5026999;28;20064;-64
2022/02/05 15:06:37;;;;;;;34.60;5.10;;;;;;;;;;5024082;28;20465;-65
2022/02/05 15:09:06;;;;;;;37.22;4.47;;;;;;;;;;5029563;28;20056;-64
2022/02/05 15:11:33;;;;;;;27.38;3.97;;;;;;;;;;5022649;28;20124;-64
2022/02/05 15:14:02;;;;;;;30.95;3.90;;;;;;;;;;5024320;28;20084;-64
2022/02/05 15:16:30;;;;;;;31.48;4.20;;;;;;;;;;5023941;28;20084;-65
2022/02/05 15:19:01;;;;;;;24.38;4.85;;;;;;;;;;5026149;28;20103;-64
2022/02/05 15:21:29;;;;;;;27.42;4.38;;;;;;;;;;5024208;28;20053;-64
2022/02/05 15:23:55;;;;;;;;;;;;;;;;;;5023477;28;20088;-64
2022/02/05 15:26:22;;;;;;;39.55;4.38;;;;;;;;;;5010848;28;20056;-64
2022/02/05 15:28:50;;;;;;;30.80;4.20;;;;;;;;;;5024432;28;20136;-65
2022/02/05 15:31:17;;;;;;;33.63;3.85;;;;;;;;;;5023148;28;20467;-64
2022/02/05 15:33:46;;;;;;;36.13;4.67;;;;;;;;;;5020406;28;20064;-64
2022/02/05 15:36:25;;;;;;;29.25;4.32;;;;;;;;;;5023520;28;20188;-64
2022/02/05 15:44:24;;;;;;;30.25;5.05;;;;;;;;;;5019924;28;20069;-64
2022/02/05 15:46:52;;;;;;;32.63;5.07;;;;;;;;;;5024763;28;20087;-64
2022/02/05 15:49:25;;;;;;;35.53;5.45;;;;;;;;;;5027293;28;20136;-64
2022/02/05 15:51:52;;;;;;;;;;;;;;;;;;5026275;28;20222;-64
2022/02/05 15:54:21;;;;;;;22.58;4.10;;;;;;;;;;5024957;28;19971;-64
2022/02/05 15:57:20;;;;;;;30.75;4.18;;;;;;;;;;5023356;28;20051;-65
2022/02/05 16:00:07;;;;;;;34.15;4.75;;;;;;;;;;5019500;28;20145;-64
2022/02/05 16:02:34;;;;;;;39.75;4.95;;;;;;;;;;5026638;28;20127;-64
2022/02/05 16:05:01;;;;;;;34.85;4.00;;;;;;;;;;5018030;28;20177;-64
2022/02/05 16:07:27;;;;;;;30.10;5.13;;;;;;;;;;5019709;28;20049;-64
2022/02/05 16:09:54;;;;;;;27.90;4.38;;;;;;;;;;5019349;28;20050;-65
2022/02/05 16:12:20;;;;;;;37.40;4.10;;;;;;;;;;5021042;28;20137;-64
2022/02/05 16:14:47;;;;;;;23.42;3.72;;;;;;;;;;5024921;28;20092;-65
2022/02/05 16:17:19;;;;;;;30.30;4.60;;;;;;;;;;5022483;28;20056;-64
2022/02/05 16:19:47;;;;;;;30.75;3.80;;;;;;;;;;5020520;28;20515;-65
2022/02/05 16:22:14;;;;;;;25.13;3.72;;;;;;;;;;5020791;28;20486;-64
2022/02/05 16:24:42;;;;;;;27.52;4.88;;;;;;;;;;5023409;28;20144;-65
2022/02/05 16:27:09;;;;;;;26.45;4.95;;;;;;;;;;5022274;28;20561;-64
2022/02/05 16:29:35;;;;;;;41.15;4.45;;;;;;;;;;5021434;28;20124;-64
2022/02/05 16:32:03;;;;;;;36.72;4.32;;;;;;;;;;5021809;28;20136;-64
2022/02/05 16:34:32;;;;;;;37.80;4.73;;;;;;;;;;5023969;28;20134;-64
2022/02/05 16:37:00;;;;;;;29.98;4.18;;;;;;;;;;5020272;28;20141;-65
2022/02/05 16:39:31;;;;;;;31.63;4.22;;;;;;;;;;5025460;28;20162;-66
2022/02/05 16:41:57;;;;;;;30.67;4.43;;;;;;;;;;5020351;28;20140;-68
2022/02/05 16:44:23;;;;;;;33.35;4.63;;;;;;;;;;5010766;28;20141;-68
2022/02/05 16:46:58;;;;;;;30.55;3.83;;;;;;;;;;5025283;28;20608;-67
2022/02/05 16:49:26;;;;;;;43.45;5.18;;;;;;;;;;5024353;28;20080;-67
2022/02/05 16:51:53;;;;;;;41.45;4.25;;;;;;;;;;5019531;28;20076;-67
2022/02/05 16:54:20;;;;;;;34.35;4.38;;;;;;;;;;5024960;28;20133;-66
2022/02/05 16:56:47;;;;;;;31.02;5.07;;;;;;;;;;5021816;28;20136;-66
2022/02/05 16:59:13;;;;;;;33.78;7.10;;;;;;;;;;5023417;28;20132;-66
2022/02/05 17:01:48;;;;;;;23.08;3.83;;;;;;;;;;5017342;28;20129;-67
2022/02/05 17:04:15;;;;;;;29.45;5.28;;;;;;;;;;5021323;28;20081;-67
2022/02/05 17:06:41;;;;;;;27.65;7.75;;;;;;;;;;5024508;28;20136;-66
2022/02/05 17:09:11;;;;;;;;;;;;;;;;;;5021992;28;20140;-66
2022/02/05 17:11:37;;;;;;;20.83;3.03;;;;;;;;;;5021261;28;19976;-66
2022/02/05 17:14:04;;;;;;;23.80;5.10;;;;;;;;;;5022833;28;20483;-67
2022/02/05 17:16:32;;;;;;;29.08;4.15;;;;;;;;;;5020416;28;20096;-67
2022/02/05 17:18:58;;;;;;;;;;;;;;;;;;5022579;28;20084;-67
2022/02/05 17:21:25;;;;;;;28.02;4.93;;;;;;;;;;5022711;28;20039;-67
2022/02/05 17:23:59;;;;;;;24.83;5.32;;;;;;;;;;5023381;28;20079;-66
2022/02/05 17:26:27;;;;;;;28.77;4.38;;;;;;;;;;5022962;28;20080;-67
2022/02/05 17:28:54;;;;;;;35.92;5.00;;;;;;;;;;5017987;28;20170;-67
2022/02/05 17:31:21;;;;;;;41.88;7.10;;;;;;;;;;5016865;28;20049;-68
2022/02/05 17:33:49;;;;;;;34.60;4.00;;;;;;;;;;5024027;28;20152;-67
2022/02/05 17:36:18;;;;;;;43.22;5.40;;;;;;;;;;5024035;28;20571;-68
2022/02/05 17:38:45;;;;;;;33.55;4.93;;;;;;;;;;5016484;28;20160;-66
2022/02/05 17:41:12;;;;;;;44.80;6.20;;;;;;;;;;5017779;28;20489;-66